San Manuel, Arizona
Current Conditions -  °F | °C
As of 2:58 PM on Saturday 20 Dec 2014 (Local Time) from KDMA Reporting Station
Clear Clear  
Wind Chill: 59°   Ceiling: Unl
Heat Index: 59°   Visibility: 10mi
Dew Point: 29°   Wind: 3mph
Humidity: 31%   Direction: 320°NW
Pressure: 30.07"   Gusts: NA
Location:  32.6°N, 110.63°W
Report Text: KDMA 202158Z AUTO 32003KT 10SM CLR 15/M02 A3007 RMK AO2 SLP168 T01511018 $
Loading
Personal Weather Stations






























Interactive Weather Map New forecast layout! Learn more

10-Day Weather Forecast

Advertisements
Track Severe Weather on mobile